sensor_id;sensor_type;location;lat;lon;timestamp;P1;durP1;ratioP1;P2;durP2;ratioP2
49464;SDS011;35358;49.342;8.802;2022-07-29T00:00:29;3.25;;;2.40;;
49464;SDS011;35358;49.342;8.802;2022-07-29T00:02:57;4.57;;;3.08;;
49464;SDS011;35358;49.342;8.802;2022-07-29T00:05:25;6.00;;;3.03;;
49464;SDS011;35358;49.342;8.802;2022-07-29T00:07:51;3.30;;;2.92;;
49464;SDS011;35358;49.342;8.802;2022-07-29T00:10:17;5.28;;;3.20;;
49464;SDS011;35358;49.342;8.802;2022-07-29T00:12:45;4.57;;;2.80;;
49464;SDS011;35358;49.342;8.802;2022-07-29T00:15:10;7.22;;;2.67;;
49464;SDS011;35358;49.342;8.802;2022-07-29T00:17:38;6.78;;;3.30;;
49464;SDS011;35358;49.342;8.802;2022-07-29T00:20:04;3.70;;;2.70;;
49464;SDS011;35358;49.342;8.802;2022-07-29T00:22:32;3.45;;;2.72;;
49464;SDS011;35358;49.342;8.802;2022-07-29T00:25:01;4.88;;;2.78;;
49464;SDS011;35358;49.342;8.802;2022-07-29T00:27:29;5.07;;;2.80;;
49464;SDS011;35358;49.342;8.802;2022-07-29T00:29:54;5.22;;;2.60;;
49464;SDS011;35358;49.342;8.802;2022-07-29T00:32:20;3.90;;;2.70;;
49464;SDS011;35358;49.342;8.802;2022-07-29T00:34:46;2.80;;;2.38;;
49464;SDS011;35358;49.342;8.802;2022-07-29T00:37:30;4.03;;;2.55;;
49464;SDS011;35358;49.342;8.802;2022-07-29T00:39:55;3.92;;;2.85;;
49464;SDS011;35358;49.342;8.802;2022-07-29T00:42:21;5.63;;;2.63;;
49464;SDS011;35358;49.342;8.802;2022-07-29T00:44:47;5.03;;;2.30;;
49464;SDS011;35358;49.342;8.802;2022-07-29T00:47:12;2.85;;;2.33;;
49464;SDS011;35358;49.342;8.802;2022-07-29T00:49:41;4.55;;;2.25;;
49464;SDS011;35358;49.342;8.802;2022-07-29T00:52:08;4.25;;;2.25;;
49464;SDS011;35358;49.342;8.802;2022-07-29T00:54:37;3.40;;;2.08;;
49464;SDS011;35358;49.342;8.802;2022-07-29T00:57:06;5.03;;;3.10;;
49464;SDS011;35358;49.342;8.802;2022-07-29T00:59:32;2.67;;;1.95;;
49464;SDS011;35358;49.342;8.802;2022-07-29T01:01:59;5.05;;;2.35;;
49464;SDS011;35358;49.342;8.802;2022-07-29T01:04:24;3.15;;;2.30;;
49464;SDS011;35358;49.342;8.802;2022-07-29T01:06:50;4.70;;;2.45;;
49464;SDS011;35358;49.342;8.802;2022-07-29T01:09:17;2.35;;;2.15;;
49464;SDS011;35358;49.342;8.802;2022-07-29T01:11:48;4.97;;;3.08;;
49464;SDS011;35358;49.342;8.802;2022-07-29T01:14:19;4.80;;;2.47;;
49464;SDS011;35358;49.342;8.802;2022-07-29T01:16:53;3.78;;;2.42;;
49464;SDS011;35358;49.342;8.802;2022-07-29T01:21:55;2.63;;;2.38;;
49464;SDS011;35358;49.342;8.802;2022-07-29T01:24:48;3.40;;;2.47;;
49464;SDS011;35358;49.342;8.802;2022-07-29T01:29:43;3.53;;;3.15;;
49464;SDS011;35358;49.342;8.802;2022-07-29T01:32:15;4.95;;;2.60;;
49464;SDS011;35358;49.342;8.802;2022-07-29T01:34:48;5.65;;;2.63;;
49464;SDS011;35358;49.342;8.802;2022-07-29T01:40:01;3.63;;;2.53;;
49464;SDS011;35358;49.342;8.802;2022-07-29T01:42:44;5.20;;;3.03;;
49464;SDS011;35358;49.342;8.802;2022-07-29T01:45:15;6.50;;;2.72;;
49464;SDS011;35358;49.342;8.802;2022-07-29T01:48:02;5.70;;;2.58;;
49464;SDS011;35358;49.342;8.802;2022-07-29T01:50:36;6.38;;;2.67;;
49464;SDS011;35358;49.342;8.802;2022-07-29T01:53:09;3.60;;;2.85;;
49464;SDS011;35358;49.342;8.802;2022-07-29T01:55:40;5.43;;;3.60;;
49464;SDS011;35358;49.342;8.802;2022-07-29T01:58:09;4.18;;;2.88;;
49464;SDS011;35358;49.342;8.802;2022-07-29T02:00:39;6.45;;;2.90;;
49464;SDS011;35358;49.342;8.802;2022-07-29T02:03:11;3.83;;;2.50;;
49464;SDS011;35358;49.342;8.802;2022-07-29T02:05:41;4.20;;;2.35;;
49464;SDS011;35358;49.342;8.802;2022-07-29T02:08:08;4.63;;;4.05;;
49464;SDS011;35358;49.342;8.802;2022-07-29T02:10:36;4.40;;;2.65;;
49464;SDS011;35358;49.342;8.802;2022-07-29T02:13:04;6.40;;;2.67;;
49464;SDS011;35358;49.342;8.802;2022-07-29T02:15:32;4.22;;;2.85;;
49464;SDS011;35358;49.342;8.802;2022-07-29T02:18:05;3.63;;;2.80;;
49464;SDS011;35358;49.342;8.802;2022-07-29T02:20:34;3.20;;;2.80;;
49464;SDS011;35358;49.342;8.802;2022-07-29T02:23:03;3.30;;;2.83;;
49464;SDS011;35358;49.342;8.802;2022-07-29T02:25:30;3.47;;;2.95;;
49464;SDS011;35358;49.342;8.802;2022-07-29T02:27:57;4.57;;;2.65;;
49464;SDS011;35358;49.342;8.802;2022-07-29T02:30:27;6.30;;;2.90;;
49464;SDS011;35358;49.342;8.802;2022-07-29T02:32:55;5.75;;;3.17;;
49464;SDS011;35358;49.342;8.802;2022-07-29T02:35:21;3.35;;;2.58;;
49464;SDS011;35358;49.342;8.802;2022-07-29T02:37:49;4.47;;;2.88;;
49464;SDS011;35358;49.342;8.802;2022-07-29T02:40:37;5.65;;;2.97;;
49464;SDS011;35358;49.342;8.802;2022-07-29T02:43:04;5.65;;;3.30;;
49464;SDS011;35358;49.342;8.802;2022-07-29T02:45:32;3.53;;;2.88;;
49464;SDS011;35358;49.342;8.802;2022-07-29T02:48:00;3.60;;;2.50;;
49464;SDS011;35358;49.342;8.802;2022-07-29T02:50:37;3.83;;;2.90;;
49464;SDS011;35358;49.342;8.802;2022-07-29T02:53:14;6.40;;;2.88;;
49464;SDS011;35358;49.342;8.802;2022-07-29T02:55:46;3.45;;;3.15;;
49464;SDS011;35358;49.342;8.802;2022-07-29T02:58:39;4.65;;;3.15;;
49464;SDS011;35358;49.342;8.802;2022-07-29T03:01:16;4.15;;;3.35;;
49464;SDS011;35358;49.342;8.802;2022-07-29T03:03:47;3.17;;;2.88;;
49464;SDS011;35358;49.342;8.802;2022-07-29T03:06:14;5.05;;;3.20;;
49464;SDS011;35358;49.342;8.802;2022-07-29T03:08:42;5.43;;;2.92;;
49464;SDS011;35358;49.342;8.802;2022-07-29T03:11:10;5.25;;;2.90;;
49464;SDS011;35358;49.342;8.802;2022-07-29T03:13:37;3.40;;;3.10;;
49464;SDS011;35358;49.342;8.802;2022-07-29T03:16:06;4.55;;;3.00;;
49464;SDS011;35358;49.342;8.802;2022-07-29T03:18:33;6.68;;;3.22;;
49464;SDS011;35358;49.342;8.802;2022-07-29T03:21:00;4.32;;;3.08;;
49464;SDS011;35358;49.342;8.802;2022-07-29T03:23:25;3.40;;;3.10;;
49464;SDS011;35358;49.342;8.802;2022-07-29T03:25:52;3.90;;;2.90;;
49464;SDS011;35358;49.342;8.802;2022-07-29T03:28:25;4.13;;;3.40;;
49464;SDS011;35358;49.342;8.802;2022-07-29T03:30:56;5.00;;;3.38;;
49464;SDS011;35358;49.342;8.802;2022-07-29T03:33:21;3.58;;;2.80;;
49464;SDS011;35358;49.342;8.802;2022-07-29T03:35:47;6.32;;;3.50;;
49464;SDS011;35358;49.342;8.802;2022-07-29T03:38:14;3.88;;;3.40;;
49464;SDS011;35358;49.342;8.802;2022-07-29T03:40:42;3.97;;;2.70;;
49464;SDS011;35358;49.342;8.802;2022-07-29T03:43:20;4.03;;;3.25;;
49464;SDS011;35358;49.342;8.802;2022-07-29T03:45:49;3.42;;;3.13;;
49464;SDS011;35358;49.342;8.802;2022-07-29T03:48:20;6.53;;;3.30;;
49464;SDS011;35358;49.342;8.802;2022-07-29T03:50:50;3.88;;;3.15;;
49464;SDS011;35358;49.342;8.802;2022-07-29T03:53:17;4.55;;;2.70;;
49464;SDS011;35358;49.342;8.802;2022-07-29T03:55:47;6.68;;;3.15;;
49464;SDS011;35358;49.342;8.802;2022-07-29T03:58:17;4.78;;;3.00;;
49464;SDS011;35358;49.342;8.802;2022-07-29T04:00:44;3.28;;;2.50;;
49464;SDS011;35358;49.342;8.802;2022-07-29T04:03:11;3.53;;;2.70;;
49464;SDS011;35358;49.342;8.802;2022-07-29T04:05:39;4.43;;;3.22;;
49464;SDS011;35358;49.342;8.802;2022-07-29T04:08:09;3.53;;;3.00;;
49464;SDS011;35358;49.342;8.802;2022-07-29T04:10:35;5.10;;;3.10;;
49464;SDS011;35358;49.342;8.802;2022-07-29T04:13:03;6.20;;;3.22;;
49464;SDS011;35358;49.342;8.802;2022-07-29T04:15:29;3.60;;;3.08;;
49464;SDS011;35358;49.342;8.802;2022-07-29T04:17:55;3.55;;;2.97;;
49464;SDS011;35358;49.342;8.802;2022-07-29T04:20:20;4.28;;;3.35;;
49464;SDS011;35358;49.342;8.802;2022-07-29T04:22:46;7.00;;;2.78;;
49464;SDS011;35358;49.342;8.802;2022-07-29T04:25:13;4.97;;;3.25;;
49464;SDS011;35358;49.342;8.802;2022-07-29T04:27:42;4.28;;;2.83;;
49464;SDS011;35358;49.342;8.802;2022-07-29T04:30:25;3.55;;;3.25;;
49464;SDS011;35358;49.342;8.802;2022-07-29T04:32:51;4.10;;;3.10;;
49464;SDS011;35358;49.342;8.802;2022-07-29T04:35:19;2.78;;;2.35;;
49464;SDS011;35358;49.342;8.802;2022-07-29T04:37:52;4.25;;;2.40;;
49464;SDS011;35358;49.342;8.802;2022-07-29T04:40:17;4.47;;;3.10;;
49464;SDS011;35358;49.342;8.802;2022-07-29T04:42:46;4.78;;;2.97;;
49464;SDS011;35358;49.342;8.802;2022-07-29T04:45:14;7.07;;;2.88;;
49464;SDS011;35358;49.342;8.802;2022-07-29T04:47:40;7.57;;;3.42;;
49464;SDS011;35358;49.342;8.802;2022-07-29T04:50:07;3.97;;;2.75;;
49464;SDS011;35358;49.342;8.802;2022-07-29T04:52:36;3.17;;;2.70;;
49464;SDS011;35358;49.342;8.802;2022-07-29T04:55:04;5.50;;;3.33;;
49464;SDS011;35358;49.342;8.802;2022-07-29T04:57:33;4.30;;;3.17;;
49464;SDS011;35358;49.342;8.802;2022-07-29T05:00:03;4.18;;;3.03;;
49464;SDS011;35358;49.342;8.802;2022-07-29T05:02:32;3.92;;;3.00;;
49464;SDS011;35358;49.342;8.802;2022-07-29T05:04:58;3.75;;;3.17;;
49464;SDS011;35358;49.342;8.802;2022-07-29T05:07:24;3.38;;;2.90;;
49464;SDS011;35358;49.342;8.802;2022-07-29T05:09:52;3.65;;;2.90;;
49464;SDS011;35358;49.342;8.802;2022-07-29T05:12:20;5.60;;;3.00;;
49464;SDS011;35358;49.342;8.802;2022-07-29T05:14:50;4.30;;;3.08;;
49464;SDS011;35358;49.342;8.802;2022-07-29T05:17:16;10.93;;;3.53;;
49464;SDS011;35358;49.342;8.802;2022-07-29T05:19:41;4.88;;;3.25;;
49464;SDS011;35358;49.342;8.802;2022-07-29T05:22:07;4.43;;;2.75;;
49464;SDS011;35358;49.342;8.802;2022-07-29T05:24:33;5.13;;;3.42;;
49464;SDS011;35358;49.342;8.802;2022-07-29T05:27:00;6.10;;;3.42;;
49464;SDS011;35358;49.342;8.802;2022-07-29T05:29:29;4.70;;;2.92;;
49464;SDS011;35358;49.342;8.802;2022-07-29T05:31:54;3.10;;;2.80;;
49464;SDS011;35358;49.342;8.802;2022-07-29T05:34:20;6.20;;;3.25;;
49464;SDS011;35358;49.342;8.802;2022-07-29T05:36:46;5.35;;;4.35;;
49464;SDS011;35358;49.342;8.802;2022-07-29T05:39:14;3.30;;;3.00;;
49464;SDS011;35358;49.342;8.802;2022-07-29T05:41:40;7.85;;;2.85;;
49464;SDS011;35358;49.342;8.802;2022-07-29T05:44:06;4.20;;;2.75;;
49464;SDS011;35358;49.342;8.802;2022-07-29T05:46:31;5.18;;;2.70;;
49464;SDS011;35358;49.342;8.802;2022-07-29T05:48:57;4.45;;;2.88;;
49464;SDS011;35358;49.342;8.802;2022-07-29T05:51:25;4.35;;;2.78;;
49464;SDS011;35358;49.342;8.802;2022-07-29T05:53:51;6.05;;;3.25;;
49464;SDS011;35358;49.342;8.802;2022-07-29T05:56:19;6.25;;;3.10;;
49464;SDS011;35358;49.342;8.802;2022-07-29T05:58:45;5.32;;;3.10;;
49464;SDS011;35358;49.342;8.802;2022-07-29T06:01:12;4.72;;;2.88;;
49464;SDS011;35358;49.342;8.802;2022-07-29T06:03:38;6.15;;;2.40;;
49464;SDS011;35358;49.342;8.802;2022-07-29T06:06:06;5.03;;;2.92;;
49464;SDS011;35358;49.342;8.802;2022-07-29T06:08:32;5.07;;;2.65;;
49464;SDS011;35358;49.342;8.802;2022-07-29T06:11:01;4.90;;;2.65;;
49464;SDS011;35358;49.342;8.802;2022-07-29T06:13:30;2.53;;;2.30;;
49464;SDS011;35358;49.342;8.802;2022-07-29T06:15:59;5.85;;;2.50;;
49464;SDS011;35358;49.342;8.802;2022-07-29T06:18:24;5.35;;;2.58;;
49464;SDS011;35358;49.342;8.802;2022-07-29T06:20:53;3.65;;;2.20;;
49464;SDS011;35358;49.342;8.802;2022-07-29T06:23:19;5.93;;;2.28;;
49464;SDS011;35358;49.342;8.802;2022-07-29T06:25:45;3.97;;;2.55;;
49464;SDS011;35358;49.342;8.802;2022-07-29T06:28:11;2.85;;;2.50;;
49464;SDS011;35358;49.342;8.802;2022-07-29T06:30:39;4.50;;;3.17;;
49464;SDS011;35358;49.342;8.802;2022-07-29T06:33:04;5.35;;;2.30;;
49464;SDS011;35358;49.342;8.802;2022-07-29T06:35:32;3.80;;;2.67;;
49464;SDS011;35358;49.342;8.802;2022-07-29T06:38:02;6.18;;;2.95;;
49464;SDS011;35358;49.342;8.802;2022-07-29T06:40:28;4.05;;;2.30;;
49464;SDS011;35358;49.342;8.802;2022-07-29T06:43:12;8.48;;;3.38;;
49464;SDS011;35358;49.342;8.802;2022-07-29T06:45:37;4.07;;;2.65;;
49464;SDS011;35358;49.342;8.802;2022-07-29T06:48:05;6.95;;;2.50;;
49464;SDS011;35358;49.342;8.802;2022-07-29T06:50:31;7.32;;;3.80;;
49464;SDS011;35358;49.342;8.802;2022-07-29T06:52:57;5.43;;;2.15;;
49464;SDS011;35358;49.342;8.802;2022-07-29T06:55:22;3.47;;;2.35;;
49464;SDS011;35358;49.342;8.802;2022-07-29T06:57:50;3.95;;;2.60;;
49464;SDS011;35358;49.342;8.802;2022-07-29T07:00:16;6.30;;;2.38;;
49464;SDS011;35358;49.342;8.802;2022-07-29T07:02:41;6.00;;;2.80;;
49464;SDS011;35358;49.342;8.802;2022-07-29T07:05:10;3.67;;;2.45;;
49464;SDS011;35358;49.342;8.802;2022-07-29T07:07:37;4.95;;;2.55;;
49464;SDS011;35358;49.342;8.802;2022-07-29T07:10:03;4.07;;;2.45;;
49464;SDS011;35358;49.342;8.802;2022-07-29T07:12:32;2.83;;;2.47;;
49464;SDS011;35358;49.342;8.802;2022-07-29T07:14:57;7.95;;;2.75;;
49464;SDS011;35358;49.342;8.802;2022-07-29T07:17:23;6.05;;;2.83;;
49464;SDS011;35358;49.342;8.802;2022-07-29T07:19:50;5.05;;;2.08;;
49464;SDS011;35358;49.342;8.802;2022-07-29T07:22:19;5.03;;;2.50;;
49464;SDS011;35358;49.342;8.802;2022-07-29T07:24:44;4.35;;;2.35;;
49464;SDS011;35358;49.342;8.802;2022-07-29T07:27:10;3.63;;;2.30;;
49464;SDS011;35358;49.342;8.802;2022-07-29T07:29:35;4.82;;;2.75;;
49464;SDS011;35358;49.342;8.802;2022-07-29T07:32:03;3.40;;;2.30;;
49464;SDS011;35358;49.342;8.802;2022-07-29T07:34:31;3.13;;;2.50;;
49464;SDS011;35358;49.342;8.802;2022-07-29T07:36:57;4.57;;;3.10;;
49464;SDS011;35358;49.342;8.802;2022-07-29T07:39:23;4.15;;;2.90;;
49464;SDS011;35358;49.342;8.802;2022-07-29T07:41:51;4.53;;;2.60;;
49464;SDS011;35358;49.342;8.802;2022-07-29T07:44:19;6.38;;;2.88;;
49464;SDS011;35358;49.342;8.802;2022-07-29T07:46:47;4.22;;;2.92;;
49464;SDS011;35358;49.342;8.802;2022-07-29T07:49:12;5.95;;;2.83;;
49464;SDS011;35358;49.342;8.802;2022-07-29T07:51:38;3.50;;;2.70;;
49464;SDS011;35358;49.342;8.802;2022-07-29T07:54:04;3.97;;;2.95;;
49464;SDS011;35358;49.342;8.802;2022-07-29T07:56:29;4.15;;;3.13;;
49464;SDS011;35358;49.342;8.802;2022-07-29T07:58:57;5.88;;;3.15;;
49464;SDS011;35358;49.342;8.802;2022-07-29T08:01:25;4.65;;;3.13;;
49464;SDS011;35358;49.342;8.802;2022-07-29T08:03:51;4.20;;;2.83;;
49464;SDS011;35358;49.342;8.802;2022-07-29T08:06:17;4.22;;;2.95;;
49464;SDS011;35358;49.342;8.802;2022-07-29T08:08:42;4.82;;;2.95;;
49464;SDS011;35358;49.342;8.802;2022-07-29T08:11:10;3.80;;;3.40;;
49464;SDS011;35358;49.342;8.802;2022-07-29T08:13:38;8.70;;;3.08;;
49464;SDS011;35358;49.342;8.802;2022-07-29T08:16:07;6.65;;;3.15;;
49464;SDS011;35358;49.342;8.802;2022-07-29T08:18:37;6.55;;;3.92;;
49464;SDS011;35358;49.342;8.802;2022-07-29T08:21:06;4.68;;;3.03;;
49464;SDS011;35358;49.342;8.802;2022-07-29T08:23:32;6.82;;;3.60;;
49464;SDS011;35358;49.342;8.802;2022-07-29T08:26:10;3.63;;;3.33;;
49464;SDS011;35358;49.342;8.802;2022-07-29T08:28:40;5.13;;;3.75;;
49464;SDS011;35358;49.342;8.802;2022-07-29T08:31:10;6.15;;;3.42;;
49464;SDS011;35358;49.342;8.802;2022-07-29T08:33:41;4.63;;;3.47;;
49464;SDS011;35358;49.342;8.802;2022-07-29T08:36:07;4.50;;;3.85;;
49464;SDS011;35358;49.342;8.802;2022-07-29T08:38:33;4.55;;;3.28;;
49464;SDS011;35358;49.342;8.802;2022-07-29T08:41:01;5.15;;;3.55;;
49464;SDS011;35358;49.342;8.802;2022-07-29T08:43:30;8.60;;;3.42;;
49464;SDS011;35358;49.342;8.802;2022-07-29T08:45:55;4.47;;;3.67;;
49464;SDS011;35358;49.342;8.802;2022-07-29T08:48:23;7.53;;;3.40;;
49464;SDS011;35358;49.342;8.802;2022-07-29T08:50:55;5.43;;;3.55;;
49464;SDS011;35358;49.342;8.802;2022-07-29T08:53:21;5.15;;;3.72;;
49464;SDS011;35358;49.342;8.802;2022-07-29T08:55:49;6.57;;;3.33;;
49464;SDS011;35358;49.342;8.802;2022-07-29T08:58:15;4.65;;;3.25;;
49464;SDS011;35358;49.342;8.802;2022-07-29T09:00:43;8.02;;;3.35;;
49464;SDS011;35358;49.342;8.802;2022-07-29T09:03:12;5.82;;;3.42;;
49464;SDS011;35358;49.342;8.802;2022-07-29T09:05:43;7.57;;;4.22;;
49464;SDS011;35358;49.342;8.802;2022-07-29T09:08:10;10.52;;;5.30;;
49464;SDS011;35358;49.342;8.802;2022-07-29T09:10:40;5.65;;;3.63;;
49464;SDS011;35358;49.342;8.802;2022-07-29T09:13:06;4.07;;;3.45;;
49464;SDS011;35358;49.342;8.802;2022-07-29T09:15:34;6.80;;;4.32;;
49464;SDS011;35358;49.342;8.802;2022-07-29T09:17:59;6.93;;;4.28;;
49464;SDS011;35358;49.342;8.802;2022-07-29T09:20:25;7.40;;;4.15;;
49464;SDS011;35358;49.342;8.802;2022-07-29T09:23:12;6.68;;;4.57;;
49464;SDS011;35358;49.342;8.802;2022-07-29T09:25:41;8.25;;;4.60;;
49464;SDS011;35358;49.342;8.802;2022-07-29T09:28:10;6.00;;;4.17;;
49464;SDS011;35358;49.342;8.802;2022-07-29T09:31:10;13.90;;;5.50;;
49464;SDS011;35358;49.342;8.802;2022-07-29T09:33:33;8.20;;;4.90;;
49464;SDS011;35358;49.342;8.802;2022-07-29T09:38:32;5.15;;;3.67;;
49464;SDS011;35358;49.342;8.802;2022-07-29T09:43:28;13.13;;;4.88;;
49464;SDS011;35358;49.342;8.802;2022-07-29T09:45:53;7.40;;;4.57;;
49464;SDS011;35358;49.342;8.802;2022-07-29T09:48:23;8.25;;;4.55;;
49464;SDS011;35358;49.342;8.802;2022-07-29T09:50:50;6.25;;;4.88;;
49464;SDS011;35358;49.342;8.802;2022-07-29T09:53:30;11.00;;;4.80;;
49464;SDS011;35358;49.342;8.802;2022-07-29T09:56:00;9.13;;;4.78;;
49464;SDS011;35358;49.342;8.802;2022-07-29T09:58:28;6.35;;;4.10;;
49464;SDS011;35358;49.342;8.802;2022-07-29T10:00:58;9.43;;;5.00;;
49464;SDS011;35358;49.342;8.802;2022-07-29T10:03:24;7.47;;;4.70;;
49464;SDS011;35358;49.342;8.802;2022-07-29T10:06:08;8.90;;;4.57;;
49464;SDS011;35358;49.342;8.802;2022-07-29T10:08:38;7.60;;;4.50;;
49464;SDS011;35358;49.342;8.802;2022-07-29T10:11:10;9.35;;;5.75;;
49464;SDS011;35358;49.342;8.802;2022-07-29T10:13:35;7.80;;;4.75;;
49464;SDS011;35358;49.342;8.802;2022-07-29T10:16:01;6.53;;;4.70;;
49464;SDS011;35358;49.342;8.802;2022-07-29T10:18:27;4.72;;;3.90;;
49464;SDS011;35358;49.342;8.802;2022-07-29T10:20:54;5.40;;;4.20;;
49464;SDS011;35358;49.342;8.802;2022-07-29T10:23:23;7.72;;;4.75;;
49464;SDS011;35358;49.342;8.802;2022-07-29T10:25:49;7.32;;;4.07;;
49464;SDS011;35358;49.342;8.802;2022-07-29T10:28:15;5.88;;;4.00;;
49464;SDS011;35358;49.342;8.802;2022-07-29T10:30:40;7.38;;;4.00;;
49464;SDS011;35358;49.342;8.802;2022-07-29T10:36:21;4.25;;;3.85;;
49464;SDS011;35358;49.342;8.802;2022-07-29T10:39:18;7.80;;;4.38;;
49464;SDS011;35358;49.342;8.802;2022-07-29T10:44:39;5.90;;;4.38;;
49464;SDS011;35358;49.342;8.802;2022-07-29T10:47:06;8.25;;;4.47;;
49464;SDS011;35358;49.342;8.802;2022-07-29T10:49:54;6.90;;;4.32;;
49464;SDS011;35358;49.342;8.802;2022-07-29T10:52:23;5.97;;;4.32;;
49464;SDS011;35358;49.342;8.802;2022-07-29T10:57:24;5.85;;;4.45;;
49464;SDS011;35358;49.342;8.802;2022-07-29T11:05:13;4.90;;;4.07;;
49464;SDS011;35358;49.342;8.802;2022-07-29T11:10:53;4.50;;;3.53;;
49464;SDS011;35358;49.342;8.802;2022-07-29T11:13:49;5.53;;;4.20;;
49464;SDS011;35358;49.342;8.802;2022-07-29T11:16:17;6.15;;;4.05;;
49464;SDS011;35358;49.342;8.802;2022-07-29T11:21:37;10.32;;;4.22;;
49464;SDS011;35358;49.342;8.802;2022-07-29T11:24:11;4.95;;;3.60;;
49464;SDS011;35358;49.342;8.802;2022-07-29T11:26:38;7.15;;;4.10;;
49464;SDS011;35358;49.342;8.802;2022-07-29T11:31:50;5.75;;;3.60;;
49464;SDS011;35358;49.342;8.802;2022-07-29T11:39:34;7.57;;;3.97;;
49464;SDS011;35358;49.342;8.802;2022-07-29T11:47:25;5.85;;;3.70;;
49464;SDS011;35358;49.342;8.802;2022-07-29T11:49:52;3.78;;;3.30;;
49464;SDS011;35358;49.342;8.802;2022-07-29T11:52:21;5.85;;;3.30;;
49464;SDS011;35358;49.342;8.802;2022-07-29T11:54:47;4.95;;;3.40;;
49464;SDS011;35358;49.342;8.802;2022-07-29T11:57:15;5.10;;;3.30;;
49464;SDS011;35358;49.342;8.802;2022-07-29T11:59:44;5.20;;;3.95;;
49464;SDS011;35358;49.342;8.802;2022-07-29T12:02:12;4.78;;;3.47;;
49464;SDS011;35358;49.342;8.802;2022-07-29T12:04:51;4.00;;;3.33;;
49464;SDS011;35358;49.342;8.802;2022-07-29T12:07:19;5.25;;;3.40;;
49464;SDS011;35358;49.342;8.802;2022-07-29T12:09:53;4.18;;;3.05;;
49464;SDS011;35358;49.342;8.802;2022-07-29T12:12:21;4.90;;;3.10;;
49464;SDS011;35358;49.342;8.802;2022-07-29T12:14:47;3.88;;;3.40;;
49464;SDS011;35358;49.342;8.802;2022-07-29T12:19:59;4.53;;;2.95;;
49464;SDS011;35358;49.342;8.802;2022-07-29T12:22:31;4.50;;;3.10;;
49464;SDS011;35358;49.342;8.802;2022-07-29T12:25:02;5.60;;;2.97;;
49464;SDS011;35358;49.342;8.802;2022-07-29T12:27:32;5.97;;;3.55;;
49464;SDS011;35358;49.342;8.802;2022-07-29T12:30:01;4.93;;;2.92;;
49464;SDS011;35358;49.342;8.802;2022-07-29T12:37:50;3.83;;;2.75;;
49464;SDS011;35358;49.342;8.802;2022-07-29T12:40:17;7.25;;;3.47;;
49464;SDS011;35358;49.342;8.802;2022-07-29T12:45:42;5.13;;;3.10;;
49464;SDS011;35358;49.342;8.802;2022-07-29T12:48:12;5.10;;;3.05;;
49464;SDS011;35358;49.342;8.802;2022-07-29T12:50:55;6.78;;;3.22;;
49464;SDS011;35358;49.342;8.802;2022-07-29T12:53:22;7.60;;;3.28;;
49464;SDS011;35358;49.342;8.802;2022-07-29T12:55:50;5.97;;;3.30;;
49464;SDS011;35358;49.342;8.802;2022-07-29T13:01:06;7.13;;;4.15;;
49464;SDS011;35358;49.342;8.802;2022-07-29T13:14:07;4.93;;;2.55;;
49464;SDS011;35358;49.342;8.802;2022-07-29T13:16:34;4.15;;;3.20;;
49464;SDS011;35358;49.342;8.802;2022-07-29T13:19:06;6.80;;;3.10;;
49464;SDS011;35358;49.342;8.802;2022-07-29T13:21:37;4.88;;;3.00;;
49464;SDS011;35358;49.342;8.802;2022-07-29T13:24:04;8.43;;;3.25;;
49464;SDS011;35358;49.342;8.802;2022-07-29T13:26:31;5.30;;;2.92;;
49464;SDS011;35358;49.342;8.802;2022-07-29T13:29:01;12.75;;;3.28;;
49464;SDS011;35358;49.342;8.802;2022-07-29T13:31:27;8.20;;;2.92;;
49464;SDS011;35358;49.342;8.802;2022-07-29T13:33:55;6.78;;;3.00;;
49464;SDS011;35358;49.342;8.802;2022-07-29T13:36:21;6.82;;;3.05;;
49464;SDS011;35358;49.342;8.802;2022-07-29T13:38:49;4.03;;;2.88;;
49464;SDS011;35358;49.342;8.802;2022-07-29T13:41:17;6.65;;;3.03;;
49464;SDS011;35358;49.342;8.802;2022-07-29T13:43:43;5.57;;;3.08;;
49464;SDS011;35358;49.342;8.802;2022-07-29T13:46:08;3.83;;;2.92;;
49464;SDS011;35358;49.342;8.802;2022-07-29T13:48:37;5.53;;;2.80;;
49464;SDS011;35358;49.342;8.802;2022-07-29T13:51:02;4.10;;;3.10;;
49464;SDS011;35358;49.342;8.802;2022-07-29T13:53:30;4.63;;;2.95;;
49464;SDS011;35358;49.342;8.802;2022-07-29T13:55:58;6.47;;;3.20;;
49464;SDS011;35358;49.342;8.802;2022-07-29T13:58:25;7.75;;;2.75;;
49464;SDS011;35358;49.342;8.802;2022-07-29T14:00:50;4.50;;;2.90;;
49464;SDS011;35358;49.342;8.802;2022-07-29T14:03:16;5.00;;;2.80;;
49464;SDS011;35358;49.342;8.802;2022-07-29T14:05:45;4.45;;;2.95;;
49464;SDS011;35358;49.342;8.802;2022-07-29T14:08:13;5.55;;;2.85;;
49464;SDS011;35358;49.342;8.802;2022-07-29T14:10:38;8.45;;;2.92;;
49464;SDS011;35358;49.342;8.802;2022-07-29T14:13:04;7.57;;;2.80;;
49464;SDS011;35358;49.342;8.802;2022-07-29T14:15:30;3.45;;;3.15;;
49464;SDS011;35358;49.342;8.802;2022-07-29T14:17:56;5.53;;;3.00;;
49464;SDS011;35358;49.342;8.802;2022-07-29T14:20:21;5.25;;;2.75;;
49464;SDS011;35358;49.342;8.802;2022-07-29T14:22:47;7.03;;;3.20;;
49464;SDS011;35358;49.342;8.802;2022-07-29T14:25:13;6.32;;;3.30;;
49464;SDS011;35358;49.342;8.802;2022-07-29T14:27:46;4.68;;;3.03;;
49464;SDS011;35358;49.342;8.802;2022-07-29T14:30:11;5.43;;;2.88;;
49464;SDS011;35358;49.342;8.802;2022-07-29T14:32:40;5.47;;;2.88;;
49464;SDS011;35358;49.342;8.802;2022-07-29T14:35:06;3.47;;;2.53;;
49464;SDS011;35358;49.342;8.802;2022-07-29T14:37:33;5.07;;;2.58;;
49464;SDS011;35358;49.342;8.802;2022-07-29T14:40:00;4.82;;;2.63;;
49464;SDS011;35358;49.342;8.802;2022-07-29T14:42:31;5.10;;;2.50;;
49464;SDS011;35358;49.342;8.802;2022-07-29T14:44:59;3.70;;;2.60;;
49464;SDS011;35358;49.342;8.802;2022-07-29T14:47:25;4.00;;;2.47;;
49464;SDS011;35358;49.342;8.802;2022-07-29T14:49:53;4.43;;;3.00;;
49464;SDS011;35358;49.342;8.802;2022-07-29T14:52:19;6.45;;;2.65;;
49464;SDS011;35358;49.342;8.802;2022-07-29T14:54:44;3.70;;;2.65;;
49464;SDS011;35358;49.342;8.802;2022-07-29T14:57:10;5.05;;;2.58;;
49464;SDS011;35358;49.342;8.802;2022-07-29T14:59:36;4.30;;;2.50;;
49464;SDS011;35358;49.342;8.802;2022-07-29T15:02:01;6.22;;;2.42;;
49464;SDS011;35358;49.342;8.802;2022-07-29T15:04:31;3.97;;;2.25;;
49464;SDS011;35358;49.342;8.802;2022-07-29T15:06:57;4.57;;;2.33;;
49464;SDS011;35358;49.342;8.802;2022-07-29T15:09:23;3.88;;;2.88;;
49464;SDS011;35358;49.342;8.802;2022-07-29T15:11:48;3.60;;;2.42;;
49464;SDS011;35358;49.342;8.802;2022-07-29T15:14:14;2.70;;;2.03;;
49464;SDS011;35358;49.342;8.802;2022-07-29T15:16:41;4.10;;;2.08;;
49464;SDS011;35358;49.342;8.802;2022-07-29T15:19:10;4.35;;;2.13;;
49464;SDS011;35358;49.342;8.802;2022-07-29T15:21:38;5.55;;;2.20;;
49464;SDS011;35358;49.342;8.802;2022-07-29T15:24:04;6.35;;;2.30;;
49464;SDS011;35358;49.342;8.802;2022-07-29T15:26:32;4.50;;;1.75;;
49464;SDS011;35358;49.342;8.802;2022-07-29T15:28:58;4.68;;;1.98;;
49464;SDS011;35358;49.342;8.802;2022-07-29T15:31:26;3.35;;;1.90;;
49464;SDS011;35358;49.342;8.802;2022-07-29T15:33:51;5.43;;;1.90;;
49464;SDS011;35358;49.342;8.802;2022-07-29T15:36:19;2.20;;;1.63;;
49464;SDS011;35358;49.342;8.802;2022-07-29T15:38:47;3.65;;;2.10;;
49464;SDS011;35358;49.342;8.802;2022-07-29T15:41:13;3.15;;;1.80;;
49464;SDS011;35358;49.342;8.802;2022-07-29T15:43:47;5.05;;;1.90;;
49464;SDS011;35358;49.342;8.802;2022-07-29T15:46:16;5.28;;;1.92;;
49464;SDS011;35358;49.342;8.802;2022-07-29T15:49:05;3.03;;;1.55;;
49464;SDS011;35358;49.342;8.802;2022-07-29T15:51:31;2.72;;;1.42;;
49464;SDS011;35358;49.342;8.802;2022-07-29T15:53:57;3.33;;;1.90;;
49464;SDS011;35358;49.342;8.802;2022-07-29T15:56:25;3.97;;;2.20;;
49464;SDS011;35358;49.342;8.802;2022-07-29T15:58:51;3.88;;;1.70;;
49464;SDS011;35358;49.342;8.802;2022-07-29T16:01:17;4.57;;;1.60;;
49464;SDS011;35358;49.342;8.802;2022-07-29T16:03:43;4.28;;;1.50;;
49464;SDS011;35358;49.342;8.802;2022-07-29T16:06:11;2.78;;;1.20;;